sensor_id;sensor_type;location;lat;lon;timestamp;P1;durP1;ratioP1;P2;durP2;ratioP2
76964;SDS011;65903;51.452;7.198;2023-12-14T00:00:55;23.65;;;12.35;;
76964;SDS011;65903;51.452;7.198;2023-12-14T00:01:55;22.42;;;12.07;;
76964;SDS011;65903;51.452;7.198;2023-12-14T00:02:56;20.75;;;11.50;;
76964;SDS011;65903;51.452;7.198;2023-12-14T00:03:57;21.52;;;11.50;;
76964;SDS011;65903;51.452;7.198;2023-12-14T00:04:57;20.23;;;13.27;;
76964;SDS011;65903;51.452;7.198;2023-12-14T00:05:58;19.52;;;11.60;;
76964;SDS011;65903;51.452;7.198;2023-12-14T00:06:59;23.40;;;12.02;;
76964;SDS011;65903;51.452;7.198;2023-12-14T00:07:59;24.67;;;12.50;;
76964;SDS011;65903;51.452;7.198;2023-12-14T00:09:00;20.25;;;10.70;;
76964;SDS011;65903;51.452;7.198;2023-12-14T00:10:00;20.27;;;11.70;;
76964;SDS011;65903;51.452;7.198;2023-12-14T00:11:07;18.92;;;11.55;;
76964;SDS011;65903;51.452;7.198;2023-12-14T00:12:07;20.08;;;10.93;;
76964;SDS011;65903;51.452;7.198;2023-12-14T00:13:08;18.13;;;10.98;;
76964;SDS011;65903;51.452;7.198;2023-12-14T00:14:09;18.63;;;10.48;;
76964;SDS011;65903;51.452;7.198;2023-12-14T00:15:09;17.50;;;11.00;;
76964;SDS011;65903;51.452;7.198;2023-12-14T00:16:10;17.58;;;9.65;;
76964;SDS011;65903;51.452;7.198;2023-12-14T00:17:11;20.52;;;10.75;;
76964;SDS011;65903;51.452;7.198;2023-12-14T00:18:11;20.17;;;11.15;;
76964;SDS011;65903;51.452;7.198;2023-12-14T00:19:13;18.25;;;10.10;;
76964;SDS011;65903;51.452;7.198;2023-12-14T00:20:14;18.95;;;10.32;;
76964;SDS011;65903;51.452;7.198;2023-12-14T00:21:14;19.27;;;11.80;;
76964;SDS011;65903;51.452;7.198;2023-12-14T00:22:15;20.30;;;11.27;;
76964;SDS011;65903;51.452;7.198;2023-12-14T00:23:16;19.83;;;9.88;;
76964;SDS011;65903;51.452;7.198;2023-12-14T00:24:16;20.58;;;12.18;;
76964;SDS011;65903;51.452;7.198;2023-12-14T00:25:17;19.88;;;11.40;;
76964;SDS011;65903;51.452;7.198;2023-12-14T00:26:18;24.83;;;11.55;;
76964;SDS011;65903;51.452;7.198;2023-12-14T00:27:18;25.20;;;13.55;;
76964;SDS011;65903;51.452;7.198;2023-12-14T00:28:19;23.77;;;12.82;;
76964;SDS011;65903;51.452;7.198;2023-12-14T00:29:20;25.33;;;13.52;;
76964;SDS011;65903;51.452;7.198;2023-12-14T00:30:20;26.00;;;12.25;;
76964;SDS011;65903;51.452;7.198;2023-12-14T00:31:24;24.92;;;13.77;;
76964;SDS011;65903;51.452;7.198;2023-12-14T00:32:24;24.23;;;12.80;;
76964;SDS011;65903;51.452;7.198;2023-12-14T00:33:25;27.77;;;12.40;;
76964;SDS011;65903;51.452;7.198;2023-12-14T00:34:25;25.95;;;13.30;;
76964;SDS011;65903;51.452;7.198;2023-12-14T00:35:25;27.05;;;13.82;;
76964;SDS011;65903;51.452;7.198;2023-12-14T00:36:25;22.98;;;11.93;;
76964;SDS011;65903;51.452;7.198;2023-12-14T00:37:26;25.42;;;14.00;;
76964;SDS011;65903;51.452;7.198;2023-12-14T00:38:26;27.73;;;12.60;;
76964;SDS011;65903;51.452;7.198;2023-12-14T00:39:27;31.25;;;14.30;;
76964;SDS011;65903;51.452;7.198;2023-12-14T00:40:28;22.30;;;12.50;;
76964;SDS011;65903;51.452;7.198;2023-12-14T00:41:28;24.38;;;13.02;;
76964;SDS011;65903;51.452;7.198;2023-12-14T00:42:29;21.70;;;12.75;;
76964;SDS011;65903;51.452;7.198;2023-12-14T00:43:30;21.65;;;12.85;;
76964;SDS011;65903;51.452;7.198;2023-12-14T00:44:30;23.52;;;12.23;;
76964;SDS011;65903;51.452;7.198;2023-12-14T00:45:30;25.52;;;12.38;;
76964;SDS011;65903;51.452;7.198;2023-12-14T00:46:31;21.75;;;11.82;;
76964;SDS011;65903;51.452;7.198;2023-12-14T00:47:31;24.27;;;13.13;;
76964;SDS011;65903;51.452;7.198;2023-12-14T00:48:32;19.25;;;11.05;;
76964;SDS011;65903;51.452;7.198;2023-12-14T00:49:33;18.52;;;11.10;;
76964;SDS011;65903;51.452;7.198;2023-12-14T00:50:33;18.15;;;11.07;;
76964;SDS011;65903;51.452;7.198;2023-12-14T00:51:34;17.40;;;10.43;;
76964;SDS011;65903;51.452;7.198;2023-12-14T00:52:35;17.02;;;9.50;;
76964;SDS011;65903;51.452;7.198;2023-12-14T00:53:36;19.25;;;10.30;;
76964;SDS011;65903;51.452;7.198;2023-12-14T00:54:37;17.08;;;9.80;;
76964;SDS011;65903;51.452;7.198;2023-12-14T00:55:37;20.25;;;11.13;;
76964;SDS011;65903;51.452;7.198;2023-12-14T00:56:38;17.27;;;10.38;;
76964;SDS011;65903;51.452;7.198;2023-12-14T00:57:38;18.55;;;10.70;;
76964;SDS011;65903;51.452;7.198;2023-12-14T00:58:39;17.23;;;10.52;;
76964;SDS011;65903;51.452;7.198;2023-12-14T00:59:39;17.25;;;10.43;;
76964;SDS011;65903;51.452;7.198;2023-12-14T01:00:42;15.55;;;9.90;;
76964;SDS011;65903;51.452;7.198;2023-12-14T01:01:43;19.45;;;9.95;;
76964;SDS011;65903;51.452;7.198;2023-12-14T01:02:43;15.73;;;9.43;;
76964;SDS011;65903;51.452;7.198;2023-12-14T01:03:44;17.75;;;8.93;;
76964;SDS011;65903;51.452;7.198;2023-12-14T01:04:46;16.45;;;10.18;;
76964;SDS011;65903;51.452;7.198;2023-12-14T01:05:47;16.15;;;9.68;;
76964;SDS011;65903;51.452;7.198;2023-12-14T01:06:47;16.75;;;9.55;;
76964;SDS011;65903;51.452;7.198;2023-12-14T01:07:48;17.02;;;10.65;;
76964;SDS011;65903;51.452;7.198;2023-12-14T01:08:49;14.32;;;9.38;;
76964;SDS011;65903;51.452;7.198;2023-12-14T01:09:49;16.75;;;10.20;;
76964;SDS011;65903;51.452;7.198;2023-12-14T01:10:50;15.80;;;8.55;;
76964;SDS011;65903;51.452;7.198;2023-12-14T01:11:50;15.48;;;9.15;;
76964;SDS011;65903;51.452;7.198;2023-12-14T01:12:51;14.63;;;8.23;;
76964;SDS011;65903;51.452;7.198;2023-12-14T01:13:52;17.67;;;9.55;;
76964;SDS011;65903;51.452;7.198;2023-12-14T01:14:53;15.40;;;9.15;;
76964;SDS011;65903;51.452;7.198;2023-12-14T01:15:53;16.52;;;9.52;;
76964;SDS011;65903;51.452;7.198;2023-12-14T01:16:54;14.35;;;9.10;;
76964;SDS011;65903;51.452;7.198;2023-12-14T01:17:54;15.27;;;9.68;;
76964;SDS011;65903;51.452;7.198;2023-12-14T01:18:55;16.38;;;8.07;;
76964;SDS011;65903;51.452;7.198;2023-12-14T01:19:55;13.57;;;8.13;;
76964;SDS011;65903;51.452;7.198;2023-12-14T01:20:56;14.00;;;8.45;;
76964;SDS011;65903;51.452;7.198;2023-12-14T01:21:57;15.80;;;8.52;;
76964;SDS011;65903;51.452;7.198;2023-12-14T01:22:58;13.48;;;8.10;;
76964;SDS011;65903;51.452;7.198;2023-12-14T01:23:58;13.35;;;8.40;;
76964;SDS011;65903;51.452;7.198;2023-12-14T01:25:00;13.45;;;8.50;;
76964;SDS011;65903;51.452;7.198;2023-12-14T01:26:00;13.88;;;8.55;;
76964;SDS011;65903;51.452;7.198;2023-12-14T01:27:01;11.35;;;7.32;;
76964;SDS011;65903;51.452;7.198;2023-12-14T01:28:01;10.85;;;7.38;;
76964;SDS011;65903;51.452;7.198;2023-12-14T01:29:02;11.38;;;7.43;;
76964;SDS011;65903;51.452;7.198;2023-12-14T01:30:03;10.60;;;8.45;;
76964;SDS011;65903;51.452;7.198;2023-12-14T01:31:04;13.75;;;7.60;;
76964;SDS011;65903;51.452;7.198;2023-12-14T01:32:05;11.82;;;7.60;;
76964;SDS011;65903;51.452;7.198;2023-12-14T01:33:05;10.13;;;7.13;;
76964;SDS011;65903;51.452;7.198;2023-12-14T01:34:06;11.73;;;7.90;;
76964;SDS011;65903;51.452;7.198;2023-12-14T01:35:07;10.68;;;7.45;;
76964;SDS011;65903;51.452;7.198;2023-12-14T01:36:08;12.27;;;8.63;;
76964;SDS011;65903;51.452;7.198;2023-12-14T01:37:08;10.45;;;7.15;;
76964;SDS011;65903;51.452;7.198;2023-12-14T01:38:09;10.50;;;7.25;;
76964;SDS011;65903;51.452;7.198;2023-12-14T01:39:10;11.95;;;6.90;;
76964;SDS011;65903;51.452;7.198;2023-12-14T01:40:11;11.77;;;7.68;;
76964;SDS011;65903;51.452;7.198;2023-12-14T01:41:12;10.13;;;6.90;;
76964;SDS011;65903;51.452;7.198;2023-12-14T01:42:14;11.25;;;6.85;;
76964;SDS011;65903;51.452;7.198;2023-12-14T01:43:15;10.95;;;6.88;;
76964;SDS011;65903;51.452;7.198;2023-12-14T01:44:16;10.30;;;6.53;;
76964;SDS011;65903;51.452;7.198;2023-12-14T01:45:16;9.93;;;6.32;;
76964;SDS011;65903;51.452;7.198;2023-12-14T01:46:17;9.52;;;6.13;;
76964;SDS011;65903;51.452;7.198;2023-12-14T01:47:18;10.85;;;6.82;;
76964;SDS011;65903;51.452;7.198;2023-12-14T01:48:18;8.82;;;6.53;;
76964;SDS011;65903;51.452;7.198;2023-12-14T01:49:18;9.45;;;6.25;;
76964;SDS011;65903;51.452;7.198;2023-12-14T01:50:19;10.05;;;7.05;;
76964;SDS011;65903;51.452;7.198;2023-12-14T01:51:19;9.13;;;5.75;;
76964;SDS011;65903;51.452;7.198;2023-12-14T01:52:20;10.43;;;6.60;;
76964;SDS011;65903;51.452;7.198;2023-12-14T01:53:21;9.20;;;6.25;;
76964;SDS011;65903;51.452;7.198;2023-12-14T01:54:21;7.25;;;5.65;;
76964;SDS011;65903;51.452;7.198;2023-12-14T01:55:22;8.90;;;6.68;;
76964;SDS011;65903;51.452;7.198;2023-12-14T01:56:23;9.52;;;6.15;;
76964;SDS011;65903;51.452;7.198;2023-12-14T01:57:23;8.77;;;5.72;;
76964;SDS011;65903;51.452;7.198;2023-12-14T01:58:24;9.00;;;6.22;;
76964;SDS011;65903;51.452;7.198;2023-12-14T01:59:25;10.55;;;6.90;;
76964;SDS011;65903;51.452;7.198;2023-12-14T02:01:42;10.48;;;7.00;;
76964;SDS011;65903;51.452;7.198;2023-12-14T02:02:43;11.20;;;8.00;;
76964;SDS011;65903;51.452;7.198;2023-12-14T02:03:45;11.65;;;7.15;;
76964;SDS011;65903;51.452;7.198;2023-12-14T02:04:45;12.13;;;7.78;;
76964;SDS011;65903;51.452;7.198;2023-12-14T02:05:46;12.38;;;8.63;;
76964;SDS011;65903;51.452;7.198;2023-12-14T02:06:47;11.50;;;7.95;;
76964;SDS011;65903;51.452;7.198;2023-12-14T02:07:47;11.38;;;7.40;;
76964;SDS011;65903;51.452;7.198;2023-12-14T02:08:48;12.50;;;8.18;;
76964;SDS011;65903;51.452;7.198;2023-12-14T02:09:48;11.23;;;7.60;;
76964;SDS011;65903;51.452;7.198;2023-12-14T02:10:50;11.52;;;7.45;;
76964;SDS011;65903;51.452;7.198;2023-12-14T02:11:51;13.68;;;7.97;;
76964;SDS011;65903;51.452;7.198;2023-12-14T02:12:53;12.77;;;8.13;;
76964;SDS011;65903;51.452;7.198;2023-12-14T02:13:53;13.50;;;8.13;;
76964;SDS011;65903;51.452;7.198;2023-12-14T02:14:56;14.20;;;7.97;;
76964;SDS011;65903;51.452;7.198;2023-12-14T02:15:56;12.32;;;8.82;;
76964;SDS011;65903;51.452;7.198;2023-12-14T02:16:57;13.77;;;7.95;;
76964;SDS011;65903;51.452;7.198;2023-12-14T02:17:58;16.13;;;8.30;;
76964;SDS011;65903;51.452;7.198;2023-12-14T02:18:58;15.57;;;9.13;;
76964;SDS011;65903;51.452;7.198;2023-12-14T02:19:59;15.07;;;9.48;;
76964;SDS011;65903;51.452;7.198;2023-12-14T02:21:00;13.63;;;10.65;;
76964;SDS011;65903;51.452;7.198;2023-12-14T02:22:01;16.02;;;9.40;;
76964;SDS011;65903;51.452;7.198;2023-12-14T02:23:01;15.25;;;9.07;;
76964;SDS011;65903;51.452;7.198;2023-12-14T02:24:02;14.88;;;8.98;;
76964;SDS011;65903;51.452;7.198;2023-12-14T02:25:03;14.27;;;8.82;;
76964;SDS011;65903;51.452;7.198;2023-12-14T02:26:04;13.75;;;8.25;;
76964;SDS011;65903;51.452;7.198;2023-12-14T02:27:05;13.70;;;7.50;;
76964;SDS011;65903;51.452;7.198;2023-12-14T02:28:06;13.30;;;7.65;;
76964;SDS011;65903;51.452;7.198;2023-12-14T02:29:06;13.35;;;8.05;;
76964;SDS011;65903;51.452;7.198;2023-12-14T02:30:08;13.10;;;8.35;;
76964;SDS011;65903;51.452;7.198;2023-12-14T02:31:08;13.18;;;9.38;;
76964;SDS011;65903;51.452;7.198;2023-12-14T02:32:09;15.50;;;8.70;;
76964;SDS011;65903;51.452;7.198;2023-12-14T02:33:09;12.48;;;8.25;;
76964;SDS011;65903;51.452;7.198;2023-12-14T02:34:09;14.63;;;8.73;;
76964;SDS011;65903;51.452;7.198;2023-12-14T02:35:10;14.00;;;8.65;;
76964;SDS011;65903;51.452;7.198;2023-12-14T02:36:11;12.80;;;8.88;;
76964;SDS011;65903;51.452;7.198;2023-12-14T02:37:11;12.20;;;8.35;;
76964;SDS011;65903;51.452;7.198;2023-12-14T02:38:12;12.65;;;8.50;;
76964;SDS011;65903;51.452;7.198;2023-12-14T02:39:12;13.05;;;8.63;;
76964;SDS011;65903;51.452;7.198;2023-12-14T02:40:13;14.35;;;8.98;;
76964;SDS011;65903;51.452;7.198;2023-12-14T02:41:14;13.60;;;8.57;;
76964;SDS011;65903;51.452;7.198;2023-12-14T02:42:14;15.45;;;9.00;;
76964;SDS011;65903;51.452;7.198;2023-12-14T02:43:15;14.35;;;9.57;;
76964;SDS011;65903;51.452;7.198;2023-12-14T02:44:15;15.57;;;10.30;;
76964;SDS011;65903;51.452;7.198;2023-12-14T02:45:16;18.30;;;9.88;;
76964;SDS011;65903;51.452;7.198;2023-12-14T02:46:16;15.82;;;10.30;;
76964;SDS011;65903;51.452;7.198;2023-12-14T02:47:18;18.38;;;10.93;;
76964;SDS011;65903;51.452;7.198;2023-12-14T02:48:19;20.85;;;10.30;;
76964;SDS011;65903;51.452;7.198;2023-12-14T02:49:19;18.02;;;10.73;;
76964;SDS011;65903;51.452;7.198;2023-12-14T02:50:20;16.10;;;9.80;;
76964;SDS011;65903;51.452;7.198;2023-12-14T02:51:20;18.75;;;10.75;;
76964;SDS011;65903;51.452;7.198;2023-12-14T02:52:21;19.00;;;9.55;;
76964;SDS011;65903;51.452;7.198;2023-12-14T02:53:22;19.55;;;10.73;;
76964;SDS011;65903;51.452;7.198;2023-12-14T02:54:22;17.40;;;9.63;;
76964;SDS011;65903;51.452;7.198;2023-12-14T02:55:24;15.90;;;9.02;;
76964;SDS011;65903;51.452;7.198;2023-12-14T02:56:25;17.27;;;8.68;;
76964;SDS011;65903;51.452;7.198;2023-12-14T02:57:25;16.08;;;9.23;;
76964;SDS011;65903;51.452;7.198;2023-12-14T02:58:26;17.20;;;9.88;;
76964;SDS011;65903;51.452;7.198;2023-12-14T02:59:27;17.88;;;9.98;;
76964;SDS011;65903;51.452;7.198;2023-12-14T03:00:27;18.95;;;10.43;;
76964;SDS011;65903;51.452;7.198;2023-12-14T03:01:28;17.63;;;9.93;;
76964;SDS011;65903;51.452;7.198;2023-12-14T03:02:28;15.70;;;9.40;;
76964;SDS011;65903;51.452;7.198;2023-12-14T03:03:30;16.52;;;9.57;;
76964;SDS011;65903;51.452;7.198;2023-12-14T03:04:30;17.42;;;10.32;;
76964;SDS011;65903;51.452;7.198;2023-12-14T03:05:31;18.20;;;10.82;;
76964;SDS011;65903;51.452;7.198;2023-12-14T03:06:32;19.27;;;9.93;;
76964;SDS011;65903;51.452;7.198;2023-12-14T03:07:32;16.42;;;9.95;;
76964;SDS011;65903;51.452;7.198;2023-12-14T03:08:33;15.27;;;9.98;;
76964;SDS011;65903;51.452;7.198;2023-12-14T03:09:34;15.45;;;8.55;;
76964;SDS011;65903;51.452;7.198;2023-12-14T03:10:34;18.23;;;10.20;;
76964;SDS011;65903;51.452;7.198;2023-12-14T03:11:34;19.95;;;10.60;;
76964;SDS011;65903;51.452;7.198;2023-12-14T03:12:35;16.77;;;9.88;;
76964;SDS011;65903;51.452;7.198;2023-12-14T03:13:35;15.73;;;9.95;;
76964;SDS011;65903;51.452;7.198;2023-12-14T03:14:35;16.90;;;9.40;;
76964;SDS011;65903;51.452;7.198;2023-12-14T03:15:36;19.65;;;10.07;;
76964;SDS011;65903;51.452;7.198;2023-12-14T03:16:37;18.48;;;9.65;;
76964;SDS011;65903;51.452;7.198;2023-12-14T03:17:37;16.65;;;9.60;;
76964;SDS011;65903;51.452;7.198;2023-12-14T03:18:38;16.65;;;10.05;;
76964;SDS011;65903;51.452;7.198;2023-12-14T03:19:41;16.70;;;9.75;;
76964;SDS011;65903;51.452;7.198;2023-12-14T03:20:43;17.90;;;10.18;;
76964;SDS011;65903;51.452;7.198;2023-12-14T03:21:43;15.98;;;9.60;;
76964;SDS011;65903;51.452;7.198;2023-12-14T03:22:44;17.58;;;10.15;;
76964;SDS011;65903;51.452;7.198;2023-12-14T03:23:44;16.40;;;9.32;;
76964;SDS011;65903;51.452;7.198;2023-12-14T03:24:45;16.30;;;9.23;;
76964;SDS011;65903;51.452;7.198;2023-12-14T03:25:46;16.48;;;8.65;;
76964;SDS011;65903;51.452;7.198;2023-12-14T03:26:46;20.98;;;10.10;;
76964;SDS011;65903;51.452;7.198;2023-12-14T03:27:47;17.90;;;9.82;;
76964;SDS011;65903;51.452;7.198;2023-12-14T03:28:48;14.93;;;9.43;;
76964;SDS011;65903;51.452;7.198;2023-12-14T03:29:48;16.42;;;9.68;;
76964;SDS011;65903;51.452;7.198;2023-12-14T03:30:49;16.92;;;9.13;;
76964;SDS011;65903;51.452;7.198;2023-12-14T03:31:50;19.80;;;9.15;;
76964;SDS011;65903;51.452;7.198;2023-12-14T03:32:50;18.23;;;9.55;;
76964;SDS011;65903;51.452;7.198;2023-12-14T03:33:51;16.13;;;9.88;;
76964;SDS011;65903;51.452;7.198;2023-12-14T03:34:52;16.58;;;9.10;;
76964;SDS011;65903;51.452;7.198;2023-12-14T03:35:53;18.15;;;9.82;;
76964;SDS011;65903;51.452;7.198;2023-12-14T03:36:53;15.25;;;9.10;;
76964;SDS011;65903;51.452;7.198;2023-12-14T03:37:54;17.45;;;10.80;;
76964;SDS011;65903;51.452;7.198;2023-12-14T03:38:54;16.20;;;9.45;;
76964;SDS011;65903;51.452;7.198;2023-12-14T03:39:54;17.85;;;10.00;;
76964;SDS011;65903;51.452;7.198;2023-12-14T03:40:55;20.33;;;10.73;;
76964;SDS011;65903;51.452;7.198;2023-12-14T03:41:55;17.88;;;10.55;;
76964;SDS011;65903;51.452;7.198;2023-12-14T03:42:56;20.52;;;11.02;;
76964;SDS011;65903;51.452;7.198;2023-12-14T03:43:56;19.83;;;11.88;;
76964;SDS011;65903;51.452;7.198;2023-12-14T03:44:57;19.67;;;10.65;;
76964;SDS011;65903;51.452;7.198;2023-12-14T03:45:58;17.98;;;10.15;;
76964;SDS011;65903;51.452;7.198;2023-12-14T03:46:58;16.10;;;9.65;;
76964;SDS011;65903;51.452;7.198;2023-12-14T03:48:00;17.58;;;10.38;;
76964;SDS011;65903;51.452;7.198;2023-12-14T03:49:00;17.20;;;10.40;;
76964;SDS011;65903;51.452;7.198;2023-12-14T03:50:01;18.92;;;10.43;;
76964;SDS011;65903;51.452;7.198;2023-12-14T03:51:02;18.70;;;11.10;;
76964;SDS011;65903;51.452;7.198;2023-12-14T03:52:04;20.77;;;10.90;;
76964;SDS011;65903;51.452;7.198;2023-12-14T03:53:05;18.48;;;10.63;;
76964;SDS011;65903;51.452;7.198;2023-12-14T03:54:06;18.48;;;10.25;;
76964;SDS011;65903;51.452;7.198;2023-12-14T03:55:06;19.15;;;10.82;;
76964;SDS011;65903;51.452;7.198;2023-12-14T03:56:07;20.42;;;11.68;;
76964;SDS011;65903;51.452;7.198;2023-12-14T03:57:08;19.40;;;11.00;;
76964;SDS011;65903;51.452;7.198;2023-12-14T03:58:09;17.05;;;9.98;;
76964;SDS011;65903;51.452;7.198;2023-12-14T03:59:09;17.95;;;10.80;;
76964;SDS011;65903;51.452;7.198;2023-12-14T04:00:11;20.20;;;11.23;;
76964;SDS011;65903;51.452;7.198;2023-12-14T04:01:15;19.60;;;11.70;;
76964;SDS011;65903;51.452;7.198;2023-12-14T04:02:16;18.52;;;11.88;;
76964;SDS011;65903;51.452;7.198;2023-12-14T04:03:16;17.58;;;9.20;;
76964;SDS011;65903;51.452;7.198;2023-12-14T04:04:17;17.67;;;10.23;;
76964;SDS011;65903;51.452;7.198;2023-12-14T04:05:18;16.42;;;9.98;;
76964;SDS011;65903;51.452;7.198;2023-12-14T04:06:19;18.67;;;11.15;;
76964;SDS011;65903;51.452;7.198;2023-12-14T04:07:20;19.15;;;11.10;;
76964;SDS011;65903;51.452;7.198;2023-12-14T04:08:20;17.45;;;10.07;;
76964;SDS011;65903;51.452;7.198;2023-12-14T04:09:21;16.92;;;9.95;;
76964;SDS011;65903;51.452;7.198;2023-12-14T04:10:22;14.25;;;8.68;;
76964;SDS011;65903;51.452;7.198;2023-12-14T04:11:22;14.30;;;8.95;;
76964;SDS011;65903;51.452;7.198;2023-12-14T04:12:23;14.80;;;9.27;;
76964;SDS011;65903;51.452;7.198;2023-12-14T04:13:24;14.10;;;8.88;;
76964;SDS011;65903;51.452;7.198;2023-12-14T04:14:25;12.63;;;7.22;;
76964;SDS011;65903;51.452;7.198;2023-12-14T04:15:25;15.52;;;8.75;;
76964;SDS011;65903;51.452;7.198;2023-12-14T04:16:26;14.68;;;11.52;;
76964;SDS011;65903;51.452;7.198;2023-12-14T04:17:27;13.63;;;8.38;;
76964;SDS011;65903;51.452;7.198;2023-12-14T04:18:28;14.80;;;9.20;;
76964;SDS011;65903;51.452;7.198;2023-12-14T04:19:28;12.23;;;7.95;;
76964;SDS011;65903;51.452;7.198;2023-12-14T04:20:28;15.32;;;8.52;;
76964;SDS011;65903;51.452;7.198;2023-12-14T04:21:29;14.77;;;8.68;;
76964;SDS011;65903;51.452;7.198;2023-12-14T04:22:29;14.60;;;8.77;;
76964;SDS011;65903;51.452;7.198;2023-12-14T04:23:30;16.70;;;10.30;;
76964;SDS011;65903;51.452;7.198;2023-12-14T04:24:30;17.60;;;10.00;;
76964;SDS011;65903;51.452;7.198;2023-12-14T04:25:30;13.60;;;9.02;;
76964;SDS011;65903;51.452;7.198;2023-12-14T04:26:31;16.05;;;9.35;;
76964;SDS011;65903;51.452;7.198;2023-12-14T04:27:31;16.23;;;8.88;;
76964;SDS011;65903;51.452;7.198;2023-12-14T04:28:32;13.07;;;7.97;;
76964;SDS011;65903;51.452;7.198;2023-12-14T04:29:32;14.02;;;7.80;;
76964;SDS011;65903;51.452;7.198;2023-12-14T04:30:33;13.77;;;9.10;;
76964;SDS011;65903;51.452;7.198;2023-12-14T04:31:34;15.85;;;9.77;;
76964;SDS011;65903;51.452;7.198;2023-12-14T04:32:34;16.55;;;9.20;;
76964;SDS011;65903;51.452;7.198;2023-12-14T04:33:35;15.73;;;9.00;;
76964;SDS011;65903;51.452;7.198;2023-12-14T04:34:35;15.25;;;8.98;;
76964;SDS011;65903;51.452;7.198;2023-12-14T04:35:36;13.52;;;9.00;;
76964;SDS011;65903;51.452;7.198;2023-12-14T04:36:38;14.43;;;7.97;;
76964;SDS011;65903;51.452;7.198;2023-12-14T04:37:39;15.18;;;9.45;;
76964;SDS011;65903;51.452;7.198;2023-12-14T04:38:39;14.60;;;9.32;;
76964;SDS011;65903;51.452;7.198;2023-12-14T04:39:39;14.55;;;8.48;;
76964;SDS011;65903;51.452;7.198;2023-12-14T04:40:40;12.00;;;7.45;;
76964;SDS011;65903;51.452;7.198;2023-12-14T04:41:40;15.75;;;9.32;;
76964;SDS011;65903;51.452;7.198;2023-12-14T04:42:40;14.40;;;9.02;;
76964;SDS011;65903;51.452;7.198;2023-12-14T04:43:41;13.40;;;7.95;;
76964;SDS011;65903;51.452;7.198;2023-12-14T04:44:41;13.55;;;7.05;;
76964;SDS011;65903;51.452;7.198;2023-12-14T04:45:41;12.65;;;8.50;;
76964;SDS011;65903;51.452;7.198;2023-12-14T04:46:42;13.38;;;8.43;;
76964;SDS011;65903;51.452;7.198;2023-12-14T04:47:42;12.98;;;8.85;;
76964;SDS011;65903;51.452;7.198;2023-12-14T04:48:43;13.38;;;8.48;;
76964;SDS011;65903;51.452;7.198;2023-12-14T04:49:43;15.82;;;8.63;;
76964;SDS011;65903;51.452;7.198;2023-12-14T04:50:44;14.07;;;8.82;;
76964;SDS011;65903;51.452;7.198;2023-12-14T04:51:44;15.77;;;9.02;;
76964;SDS011;65903;51.452;7.198;2023-12-14T04:52:44;12.57;;;8.32;;
76964;SDS011;65903;51.452;7.198;2023-12-14T04:53:46;12.90;;;8.07;;
76964;SDS011;65903;51.452;7.198;2023-12-14T04:54:46;13.82;;;8.18;;
76964;SDS011;65903;51.452;7.198;2023-12-14T04:55:47;13.20;;;7.85;;
76964;SDS011;65903;51.452;7.198;2023-12-14T04:56:48;14.75;;;7.65;;
76964;SDS011;65903;51.452;7.198;2023-12-14T04:57:48;12.27;;;8.30;;
76964;SDS011;65903;51.452;7.198;2023-12-14T04:58:49;13.85;;;7.88;;
76964;SDS011;65903;51.452;7.198;2023-12-14T04:59:50;10.90;;;7.20;;
76964;SDS011;65903;51.452;7.198;2023-12-14T05:00:52;11.82;;;6.88;;
76964;SDS011;65903;51.452;7.198;2023-12-14T05:01:53;10.20;;;6.18;;
76964;SDS011;65903;51.452;7.198;2023-12-14T05:02:54;11.02;;;7.55;;
76964;SDS011;65903;51.452;7.198;2023-12-14T05:03:54;11.02;;;7.25;;
76964;SDS011;65903;51.452;7.198;2023-12-14T05:04:55;11.07;;;7.00;;
76964;SDS011;65903;51.452;7.198;2023-12-14T05:05:56;10.45;;;6.47;;
76964;SDS011;65903;51.452;7.198;2023-12-14T05:06:56;9.52;;;6.80;;
76964;SDS011;65903;51.452;7.198;2023-12-14T05:07:57;10.75;;;5.93;;
76964;SDS011;65903;51.452;7.198;2023-12-14T05:08:57;10.05;;;6.47;;
76964;SDS011;65903;51.452;7.198;2023-12-14T05:09:58;11.32;;;7.78;;
76964;SDS011;65903;51.452;7.198;2023-12-14T05:10:59;10.32;;;6.43;;
76964;SDS011;65903;51.452;7.198;2023-12-14T05:12:00;11.50;;;6.78;;
76964;SDS011;65903;51.452;7.198;2023-12-14T05:13:00;11.85;;;8.05;;
76964;SDS011;65903;51.452;7.198;2023-12-14T05:14:00;11.40;;;8.25;;
76964;SDS011;65903;51.452;7.198;2023-12-14T05:15:00;11.68;;;7.40;;
76964;SDS011;65903;51.452;7.198;2023-12-14T05:16:02;9.52;;;5.97;;
76964;SDS011;65903;51.452;7.198;2023-12-14T05:17:03;12.45;;;7.47;;
76964;SDS011;65903;51.452;7.198;2023-12-14T05:18:04;11.38;;;7.43;;
76964;SDS011;65903;51.452;7.198;2023-12-14T05:19:04;11.35;;;6.88;;
76964;SDS011;65903;51.452;7.198;2023-12-14T05:20:07;13.52;;;8.02;;
76964;SDS011;65903;51.452;7.198;2023-12-14T05:21:08;12.15;;;7.47;;
76964;SDS011;65903;51.452;7.198;2023-12-14T05:22:08;11.65;;;7.53;;
76964;SDS011;65903;51.452;7.198;2023-12-14T05:23:09;12.20;;;8.32;;
76964;SDS011;65903;51.452;7.198;2023-12-14T05:24:09;13.13;;;7.88;;
76964;SDS011;65903;51.452;7.198;2023-12-14T05:25:10;12.38;;;8.30;;
76964;SDS011;65903;51.452;7.198;2023-12-14T05:26:11;13.80;;;8.55;;
76964;SDS011;65903;51.452;7.198;2023-12-14T05:27:11;14.45;;;8.60;;
76964;SDS011;65903;51.452;7.198;2023-12-14T05:28:12;13.38;;;8.10;;
76964;SDS011;65903;51.452;7.198;2023-12-14T05:29:13;13.75;;;7.68;;
76964;SDS011;65903;51.452;7.198;2023-12-14T05:30:13;15.23;;;8.25;;
76964;SDS011;65903;51.452;7.198;2023-12-14T05:31:14;14.43;;;8.75;;
76964;SDS011;65903;51.452;7.198;2023-12-14T05:32:15;15.43;;;8.68;;
76964;SDS011;65903;51.452;7.198;2023-12-14T05:33:15;13.82;;;7.93;;
76964;SDS011;65903;51.452;7.198;2023-12-14T05:34:16;13.40;;;8.45;;
76964;SDS011;65903;51.452;7.198;2023-12-14T05:35:16;15.02;;;9.07;;
76964;SDS011;65903;51.452;7.198;2023-12-14T05:36:17;15.30;;;7.75;;
76964;SDS011;65903;51.452;7.198;2023-12-14T05:37:17;13.63;;;8.32;;
76964;SDS011;65903;51.452;7.198;2023-12-14T05:38:17;15.20;;;8.75;;
76964;SDS011;65903;51.452;7.198;2023-12-14T05:39:17;15.45;;;8.18;;
76964;SDS011;65903;51.452;7.198;2023-12-14T05:40:18;14.68;;;9.45;;
76964;SDS011;65903;51.452;7.198;2023-12-14T05:41:19;15.77;;;8.40;;
76964;SDS011;65903;51.452;7.198;2023-12-14T05:42:20;13.88;;;8.45;;
76964;SDS011;65903;51.452;7.198;2023-12-14T05:43:22;16.20;;;9.00;;
76964;SDS011;65903;51.452;7.198;2023-12-14T05:44:22;14.77;;;7.75;;
76964;SDS011;65903;51.452;7.198;2023-12-14T05:45:23;16.30;;;8.73;;
76964;SDS011;65903;51.452;7.198;2023-12-14T05:46:23;14.13;;;8.82;;
76964;SDS011;65903;51.452;7.198;2023-12-14T05:47:25;16.73;;;9.50;;
76964;SDS011;65903;51.452;7.198;2023-12-14T05:48:26;13.68;;;9.32;;
76964;SDS011;65903;51.452;7.198;2023-12-14T05:49:29;13.80;;;8.00;;
76964;SDS011;65903;51.452;7.198;2023-12-14T05:50:30;16.20;;;9.43;;
76964;SDS011;65903;51.452;7.198;2023-12-14T05:51:32;14.30;;;8.98;;
76964;SDS011;65903;51.452;7.198;2023-12-14T05:52:32;15.63;;;8.55;;
76964;SDS011;65903;51.452;7.198;2023-12-14T05:53:32;15.60;;;9.45;;
76964;SDS011;65903;51.452;7.198;2023-12-14T05:54:37;14.40;;;7.85;;
76964;SDS011;65903;51.452;7.198;2023-12-14T05:55:37;14.60;;;7.85;;
76964;SDS011;65903;51.452;7.198;2023-12-14T05:56:41;12.75;;;9.23;;
76964;SDS011;65903;51.452;7.198;2023-12-14T05:57:41;13.05;;;8.20;;
76964;SDS011;65903;51.452;7.198;2023-12-14T05:58:41;13.32;;;8.50;;
76964;SDS011;65903;51.452;7.198;2023-12-14T05:59:42;12.88;;;8.15;;
76964;SDS011;65903;51.452;7.198;2023-12-14T06:00:42;13.07;;;8.73;;